Time;durP1;ratioP1;P1;durP2;ratioP2;P2;SDS_P1;SDS_P2;PMS_P1;PMS_P2;Temp;Humidity;BMP_temperature;BMP_pressure;BME280_temperature;BME280_humidity;BME280_pressure;Samples;Min_cycle;Max_cycle;Signal;HPM_P1;HPM_P2
2022/02/17 00:01:32;;;;;;;0.95;0.95;;;;;;;12.02;85.14;97597.94;5091423;28;20036;-69
2022/02/17 00:03:57;;;;;;;1.50;1.20;;;;;;;12.09;84.38;97566.53;5090613;28;20036;-70
2022/02/17 00:06:22;;;;;;;1.30;0.90;;;;;;;12.12;84.29;97576.81;5088543;28;20032;-70
2022/02/17 00:08:48;;;;;;;4.50;1.10;;;;;;;12.14;84.58;97595.19;5089775;28;20456;-70
2022/02/17 00:11:13;;;;;;;1.10;0.90;;;;;;;12.15;83.79;97581.81;5088872;28;20036;-70
2022/02/17 00:13:38;;;;;;;1.48;1.00;;;;;;;12.13;84.43;97585.56;5088968;28;20513;-69
2022/02/17 00:16:04;;;;;;;1.45;1.13;;;;;;;12.10;84.44;97576.13;5088416;28;20057;-70
2022/02/17 00:18:33;;;;;;;2.83;1.08;;;;;;;12.11;83.65;97571.66;5090023;28;20040;-70
2022/02/17 00:21:00;;;;;;;2.75;1.35;;;;;;;12.10;82.26;97570.84;5067514;28;20043;-70
2022/02/17 00:23:25;;;;;;;1.85;1.42;;;;;;;12.14;81.46;97563.47;5087939;28;20071;-70
2022/02/17 00:25:51;;;;;;;3.10;1.25;;;;;;;12.12;80.73;97549.56;5082059;28;20055;-70
2022/02/17 00:28:17;;;;;;;1.38;0.88;;;;;;;12.16;80.86;97570.28;5066688;28;20032;-71
2022/02/17 00:30:42;;;;;;;3.05;1.17;;;;;;;12.13;82.15;97567.91;5066501;28;20048;-70
2022/02/17 00:33:07;;;;;;;1.45;1.20;;;;;;;12.08;82.51;97572.78;5067526;28;20474;-70
2022/02/17 00:35:33;;;;;;;1.10;1.00;;;;;;;12.09;82.41;97558.63;5072220;28;20068;-70
2022/02/17 00:37:59;;;;;;;1.75;1.20;;;;;;;12.12;82.63;97549.56;5075970;28;20028;-70
2022/02/17 00:40:25;;;;;;;1.67;1.10;;;;;;;12.11;81.88;97554.03;5086971;28;20035;-70
2022/02/17 00:42:50;;;;;;;2.60;1.30;;;;;;;12.13;80.17;97530.09;5087724;28;20040;-70
2022/02/17 00:45:16;;;;;;;1.92;1.13;;;;;;;12.22;78.36;97574.16;5086585;28;20024;-71
2022/02/17 00:47:41;;;;;;;2.25;1.17;;;;;;;12.24;77.54;97574.88;5069644;28;20493;-71
2022/02/17 00:50:07;;;;;;;2.70;1.40;;;;;;;12.27;76.48;97569.28;5049254;28;20037;-72
2022/02/17 00:52:32;;;;;;;7.20;1.85;;;;;;;12.25;75.98;97601.13;5067575;28;20107;-69
2022/02/17 00:54:58;;;;;;;7.80;1.70;;;;;;;12.27;74.43;97593.06;5067120;28;20028;-70
2022/02/17 00:57:24;;;;;;;3.35;1.55;;;;;;;12.29;74.13;97606.97;5066946;28;20037;-70
2022/02/17 00:59:49;;;;;;;3.85;1.58;;;;;;;12.28;72.97;97607.09;5048724;28;20055;-70
2022/02/17 01:02:14;;;;;;;5.88;2.42;;;;;;;12.27;73.36;97616.03;5066155;28;20541;-70
2022/02/17 01:04:40;;;;;;;7.03;1.80;;;;;;;12.26;72.29;97596.69;5066450;28;20036;-69
2022/02/17 01:07:06;;;;;;;8.88;1.95;;;;;;;12.24;71.40;97636.47;5067694;28;20094;-69
2022/02/17 01:09:31;;;;;;;5.00;2.13;;;;;;;12.23;70.82;97618.09;5073058;28;20127;-71
2022/02/17 01:11:56;;;;;;;7.25;2.88;;;;;;;12.22;70.10;97661.34;5073147;28;20120;-71
2022/02/17 01:14:22;;;;;;;12.98;3.17;;;;;;;12.22;69.18;97685.94;5073972;28;20059;-70
2022/02/17 01:16:47;;;;;;;12.75;3.25;;;;;;;12.21;68.30;97630.63;5073179;28;20025;-70
2022/02/17 01:19:13;;;;;;;6.93;2.10;;;;;;;12.17;67.51;97679.41;5073603;28;20554;-71
2022/02/17 01:21:38;;;;;;;10.35;2.85;;;;;;;12.13;68.18;97670.91;5074023;28;20028;-69
2022/02/17 01:24:04;;;;;;;9.18;2.65;;;;;;;12.11;67.52;97680.81;5055471;28;20045;-69
2022/02/17 01:26:29;;;;;;;7.85;2.95;;;;;;;12.05;67.30;97672.59;5072629;28;20037;-69
2022/02/17 01:28:55;;;;;;;9.88;2.88;;;;;;;12.01;67.42;97678.16;5073176;28;20114;-69
2022/02/17 01:31:20;;;;;;;9.18;3.20;;;;;;;11.91;67.06;97674.66;5073445;28;20482;-70
2022/02/17 01:33:45;;;;;;;10.85;2.90;;;;;;;11.87;66.67;97683.81;5073611;28;20036;-70
2022/02/17 01:36:11;;;;;;;12.10;3.70;;;;;;;11.80;66.32;97688.75;5072223;28;20037;-70
2022/02/17 01:38:38;;;;;;;15.43;4.20;;;;;;;11.74;66.20;97676.13;5069649;28;20494;-70
2022/02/17 01:41:06;;;;;;;10.85;4.13;;;;;;;11.72;65.22;97722.09;5072608;28;20032;-69
2022/02/17 01:43:32;;;;;;;16.58;4.22;;;;;;;11.71;64.67;97708.03;5073219;28;20090;-70
2022/02/17 01:45:59;;;;;;;14.23;4.65;;;;;;;11.67;64.27;97704.00;5073475;28;20035;-70
2022/02/17 01:48:25;;;;;;;11.80;4.22;;;;;;;11.66;64.30;97735.81;5073570;28;20494;-70
2022/02/17 01:50:50;;;;;;;15.52;4.78;;;;;;;11.60;64.06;97719.53;5073106;28;20044;-70
2022/02/17 01:53:16;;;;;;;14.48;4.60;;;;;;;11.56;65.08;97730.50;5073294;28;20028;-70
2022/02/17 01:55:45;;;;;;;20.00;4.80;;;;;;;11.47;63.75;97736.53;5072895;28;20555;-70
2022/02/17 01:58:11;;;;;;;15.85;5.13;;;;;;;11.45;64.22;97739.34;5073272;28;20071;-70
2022/02/17 02:00:36;;;;;;;14.52;5.85;;;;;;;11.45;63.38;97743.78;5046828;28;20040;-70
2022/02/17 02:03:01;;;;;;;12.68;5.63;;;;;;;11.44;63.41;97747.38;5060487;28;20052;-70
2022/02/17 02:05:27;;;;;;;15.70;5.40;;;;;;;11.45;63.65;97765.72;5072358;28;20487;-70
2022/02/17 02:07:52;;;;;;;11.05;4.68;;;;;;;11.40;64.32;97754.72;5073886;28;20036;-70
2022/02/17 02:10:18;;;;;;;19.08;4.65;;;;;;;11.36;63.37;97729.56;5072950;28;20028;-69
2022/02/17 02:12:43;;;;;;;24.00;5.30;;;;;;;11.37;63.37;97776.94;5073244;28;20060;-70
2022/02/17 02:15:10;;;;;;;17.60;5.47;;;;;;;11.34;63.28;97782.44;5073217;28;20064;-69
2022/02/17 02:17:37;;;;;;;19.58;5.63;;;;;;;11.35;63.67;97751.66;5073124;28;20097;-70
2022/02/17 02:20:04;;;;;;;24.30;6.10;;;;;;;11.30;63.62;97781.06;5069175;28;20033;-70
2022/02/17 02:22:32;;;;;;;18.27;6.38;;;;;;;11.28;64.38;97775.06;5070098;28;20115;-69
2022/02/17 02:25:01;;;;;;;19.67;5.60;;;;;;;11.26;63.47;97784.06;5058720;28;20028;-69
2022/02/17 02:27:28;;;;;;;16.02;6.07;;;;;;;11.23;64.11;97782.53;5089516;28;20032;-70
2022/02/17 02:29:54;;;;;;;21.52;6.82;;;;;;;11.18;64.26;97797.91;5076742;28;20105;-69
2022/02/17 02:32:20;;;;;;;21.20;5.65;;;;;;;11.19;64.08;97781.09;5052219;28;20059;-70
2022/02/17 02:34:46;;;;;;;25.83;6.68;;;;;;;11.16;63.56;97808.56;5069630;28;20468;-69
2022/02/17 02:37:11;;;;;;;18.00;7.05;;;;;;;11.14;63.84;97825.50;5072811;28;20028;-70
2022/02/17 02:39:37;;;;;;;18.27;6.63;;;;;;;11.09;62.81;97823.22;5069546;28;20515;-70
2022/02/17 02:42:04;;;;;;;19.45;7.65;;;;;;;11.09;62.56;97832.94;5069292;28;20654;-70
2022/02/17 02:44:30;;;;;;;24.05;7.35;;;;;;;11.06;63.21;97825.31;5069296;28;20047;-70
2022/02/17 02:46:55;;;;;;;23.42;5.65;;;;;;;11.04;62.82;97814.03;5069953;28;20028;-69
2022/02/17 02:49:21;;;;;;;33.85;8.23;;;;;;;11.02;63.60;97818.59;5069555;28;20028;-69
2022/02/17 02:51:47;;;;;;;30.95;7.07;;;;;;;10.98;63.27;97843.53;5069714;28;20066;-69
2022/02/17 02:54:12;;;;;;;16.52;5.95;;;;;;;10.96;62.77;97836.59;5069275;28;20089;-69
2022/02/17 02:56:38;;;;;;;24.48;6.68;;;;;;;10.91;63.72;97849.31;5069330;28;20457;-70
2022/02/17 02:59:03;;;;;;;26.70;7.10;;;;;;;10.86;63.16;97864.69;5069051;28;20036;-69
2022/02/17 03:01:28;;;;;;;20.58;6.70;;;;;;;10.83;63.79;97850.91;5069399;28;20569;-69
2022/02/17 03:03:54;;;;;;;23.17;6.32;;;;;;;10.78;63.02;97877.66;5069585;28;20489;-69
2022/02/17 03:06:19;;;;;;;24.95;7.30;;;;;;;10.77;62.95;97883.88;5068842;28;20452;-69
2022/02/17 03:08:45;;;;;;;24.33;8.70;;;;;;;10.73;63.73;97848.16;5068795;28;20044;-69
2022/02/17 03:11:11;;;;;;;26.55;7.22;;;;;;;10.73;63.95;97870.13;5046837;28;20048;-68
2022/02/17 03:13:36;;;;;;;26.52;8.98;;;;;;;10.68;64.13;97882.81;5064082;28;20037;-68
2022/02/17 03:16:03;;;;;;;28.33;7.03;;;;;;;10.63;63.30;97897.31;5069023;28;20106;-69
2022/02/17 03:18:28;;;;;;;21.48;7.40;;;;;;;10.57;64.26;97903.91;5069022;28;20409;-70
2022/02/17 03:20:54;;;;;;;25.33;7.70;;;;;;;10.53;63.81;97899.84;5068920;28;20036;-69
2022/02/17 03:23:19;;;;;;;30.30;8.90;;;;;;;10.50;64.44;97900.91;5068645;28;20052;-69
2022/02/17 03:25:44;;;;;;;21.85;6.93;;;;;;;10.48;64.59;97899.38;5068562;28;20036;-69
2022/02/17 03:28:10;;;;;;;27.08;8.30;;;;;;;10.43;63.91;97893.63;5068529;28;20437;-70
2022/02/17 03:30:36;;;;;;;37.55;8.10;;;;;;;10.42;63.91;97911.22;5067541;28;20119;-71
2022/02/17 03:33:02;;;;;;;33.85;8.15;;;;;;;10.41;63.96;97906.94;5068901;28;20037;-70
2022/02/17 03:35:27;;;;;;;29.55;7.68;;;;;;;10.38;64.23;97917.69;5068224;28;20037;-70
2022/02/17 03:37:52;;;;;;;21.08;6.50;;;;;;;10.41;63.92;97953.47;5051334;28;20037;-70
2022/02/17 03:40:18;;;;;;;25.40;8.00;;;;;;;10.39;64.46;97948.34;5068219;28;20795;-69
2022/02/17 03:42:43;;;;;;;27.98;6.88;;;;;;;10.38;63.72;97970.38;5068033;28;20761;-69
2022/02/17 03:45:10;;;;;;;29.15;8.77;;;;;;;10.36;64.71;97955.66;5067665;28;20494;-69
2022/02/17 03:47:36;;;;;;;23.38;7.13;;;;;;;10.35;63.94;97960.06;5067796;28;20036;-69
2022/02/17 03:50:03;;;;;;;29.00;7.53;;;;;;;10.35;63.98;97965.34;5067836;28;20067;-70
2022/02/17 03:52:28;;;;;;;21.13;6.43;;;;;;;10.32;63.37;97965.59;5068232;28;20047;-70
2022/02/17 03:54:54;;;;;;;27.40;9.23;;;;;;;10.32;63.34;97973.50;5068500;28;20037;-69
2022/02/17 03:57:19;;;;;;;25.48;8.20;;;;;;;10.30;63.95;97994.66;5066265;28;20029;-70
2022/02/17 03:59:44;;;;;;;35.88;8.38;;;;;;;10.26;63.13;97985.31;5067303;28;20041;-70
2022/02/17 04:02:10;;;;;;;24.42;8.18;;;;;;;10.26;63.79;97989.72;5068051;28;20033;-70
2022/02/17 04:04:35;;;;;;;29.60;8.00;;;;;;;10.21;63.05;97992.69;5067805;28;20033;-70
2022/02/17 04:07:00;;;;;;;27.60;8.50;;;;;;;10.21;63.38;97999.78;5066560;28;20048;-71
2022/02/17 04:09:26;;;;;;;25.83;7.20;;;;;;;10.21;64.00;98013.78;5049861;28;20490;-70
2022/02/17 04:11:51;;;;;;;27.92;9.93;;;;;;;10.19;63.75;98002.53;5068141;28;20028;-70
2022/02/17 04:14:16;;;;;;;27.00;8.90;;;;;;;10.18;63.31;98010.53;5067414;28;20033;-70
2022/02/17 04:16:42;;;;;;;33.65;9.48;;;;;;;10.15;63.61;98005.53;5083919;28;20028;-70
2022/02/17 04:19:07;;;;;;;18.60;7.47;;;;;;;10.13;63.83;98010.06;5087244;28;20034;-70
2022/02/17 04:21:32;;;;;;;33.75;8.07;;;;;;;10.12;63.67;98014.50;5088333;28;20039;-70
2022/02/17 04:23:58;;;;;;;33.33;7.78;;;;;;;10.06;63.27;98023.66;5069603;28;20036;-70
2022/02/17 04:26:24;;;;;;;25.90;8.00;;;;;;;10.04;63.69;98020.34;5070216;28;20489;-70
2022/02/17 04:28:49;;;;;;;33.70;9.32;;;;;;;10.03;64.21;98028.34;5069895;28;20040;-70
2022/02/17 04:31:15;;;;;;;29.13;10.38;;;;;;;10.01;64.17;98059.22;5082344;28;20032;-70
2022/02/17 04:33:42;;;;;;;35.78;8.18;;;;;;;9.97;63.47;98037.56;5088162;28;20028;-70
2022/02/17 04:36:08;;;;;;;28.15;8.27;;;;;;;9.95;63.74;98057.03;5087370;28;20036;-72
2022/02/17 04:38:33;;;;;;;48.75;13.13;;;;;;;9.93;63.95;98051.88;5087546;28;20490;-70
2022/02/17 04:43:44;;;;;;;36.78;9.82;;;;;;;9.87;63.86;98068.16;5087225;28;20047;-68
2022/02/17 04:46:10;;;;;;;45.08;10.82;;;;;;;9.79;64.08;98065.22;5087736;28;20028;-69
2022/02/17 04:48:35;;;;;;;42.50;10.25;;;;;;;9.76;64.42;98078.59;5087703;28;20055;-68
2022/02/17 04:51:01;;;;;;;40.88;10.55;;;;;;;9.72;64.83;98075.38;5086943;28;20032;-68
2022/02/17 04:53:26;;;;;;;29.13;8.45;;;;;;;9.70;64.57;98076.41;5087524;28;20074;-69
2022/02/17 04:55:52;;;;;;;40.80;11.60;;;;;;;9.70;64.63;98069.38;5087390;28;20043;-69
2022/02/17 04:58:17;;;;;;;36.63;11.02;;;;;;;9.67;64.94;98078.34;5086559;28;20032;-69
2022/02/17 05:00:44;;;;;;;41.80;10.50;;;;;;;9.65;65.80;98074.16;5087211;28;20044;-69
2022/02/17 05:03:10;;;;;;;49.95;10.32;;;;;;;9.60;65.59;98068.38;5087401;28;20042;-69
2022/02/17 05:05:36;;;;;;;41.60;9.68;;;;;;;9.56;66.04;98078.28;5087212;28;20111;-69
2022/02/17 05:08:01;;;;;;;34.40;8.45;;;;;;;9.54;65.71;98103.00;5087781;28;20435;-69
2022/02/17 05:10:26;;;;;;;42.35;10.65;;;;;;;9.53;65.38;98109.22;5087447;28;20485;-69
2022/02/17 05:12:52;;;;;;;37.13;9.50;;;;;;;9.53;65.24;98125.03;5088155;28;20503;-69
2022/02/17 05:15:17;;;;;;;34.00;8.50;;;;;;;9.54;65.58;98124.88;5087496;28;20043;-69
2022/02/17 05:17:42;;;;;;;29.63;8.90;;;;;;;9.50;64.47;98110.28;5087618;28;20044;-69
2022/02/17 05:20:08;;;;;;;33.17;9.20;;;;;;;9.50;65.27;98110.28;5087196;28;20115;-69
2022/02/17 05:22:39;;;;;;;34.65;10.48;;;;;;;9.49;65.16;98116.50;5069200;28;20143;-69
2022/02/17 05:25:05;;;;;;;48.88;11.73;;;;;;;9.46;65.38;98121.97;5086758;28;20104;-69
2022/02/17 05:27:31;;;;;;;46.88;10.52;;;;;;;9.47;64.78;98134.16;5087145;28;20036;-69
2022/02/17 05:29:56;;;;;;;47.03;10.40;;;;;;;9.46;65.08;98133.34;5087362;28;20047;-69
2022/02/17 05:32:21;;;;;;;40.67;9.35;;;;;;;9.47;65.46;98139.44;5087000;28;20028;-71
2022/02/17 05:34:47;;;;;;;33.65;9.68;;;;;;;9.48;65.66;98133.22;5086629;28;20063;-70
2022/02/17 05:37:12;;;;;;;36.25;10.25;;;;;;;9.50;65.09;98152.38;5086972;28;20122;-69
2022/02/17 05:39:37;;;;;;;33.15;8.30;;;;;;;9.51;65.87;98145.31;5086369;28;20028;-70
2022/02/17 05:42:03;;;;;;;35.75;11.25;;;;;;;9.50;65.37;98155.00;5087388;28;20036;-69
2022/02/17 05:44:28;;;;;;;42.75;11.95;;;;;;;9.51;65.83;98143.53;5087295;28;20067;-69
2022/02/17 05:46:54;;;;;;;50.45;11.70;;;;;;;9.52;66.02;98160.97;5087646;28;20124;-69
2022/02/17 05:49:19;;;;;;;38.22;10.63;;;;;;;9.52;65.50;98160.97;5086588;28;20032;-69
2022/02/17 05:51:44;;;;;;;43.53;11.30;;;;;;;9.54;65.53;98187.19;5085956;28;20032;-69
2022/02/17 05:54:10;;;;;;;50.20;13.98;;;;;;;9.54;65.96;98171.41;5088237;28;20031;-69
2022/02/17 05:56:35;;;;;;;38.28;11.02;;;;;;;9.54;66.93;98172.25;5090845;28;20028;-69
2022/02/17 05:59:00;;;;;;;45.17;11.60;;;;;;;9.48;65.83;98177.94;5090258;28;20028;-68
2022/02/17 06:01:26;;;;;;;38.28;10.50;;;;;;;9.46;66.39;98164.91;5071654;28;20090;-69
2022/02/17 06:03:51;;;;;;;47.63;11.25;;;;;;;9.42;66.42;98175.75;5090450;28;20039;-69
2022/02/17 06:06:16;;;;;;;48.58;13.32;;;;;;;9.39;67.08;98200.47;5090483;28;20028;-69
2022/02/17 06:08:42;;;;;;;37.08;10.27;;;;;;;9.38;66.70;98204.06;5090471;28;20032;-69
2022/02/17 06:11:07;;;;;;;40.33;11.32;;;;;;;9.33;66.96;98184.25;5089762;28;20094;-70
2022/02/17 06:13:32;;;;;;;43.67;10.38;;;;;;;9.30;66.87;98222.13;5090805;28;20036;-71
2022/02/17 06:15:58;;;;;;;47.95;13.15;;;;;;;9.21;67.57;98194.72;5090341;28;20047;-70
2022/02/17 06:18:23;;;;;;;44.83;13.15;;;;;;;9.22;67.38;98217.41;5066184;28;20028;-70
2022/02/17 06:20:49;;;;;;;45.78;12.38;;;;;;;9.21;66.12;98210.47;5069673;28;20048;-70
2022/02/17 06:23:15;;;;;;;39.92;11.40;;;;;;;9.20;66.02;98229.81;5069835;28;20440;-70
2022/02/17 06:25:40;;;;;;;33.35;10.80;;;;;;;9.19;65.43;98228.16;5069444;28;20086;-69
2022/02/17 06:28:05;;;;;;;44.30;10.35;;;;;;;9.20;66.52;98234.25;5069820;28;20442;-69
2022/02/17 06:30:31;;;;;;;38.95;11.55;;;;;;;9.21;66.07;98228.06;5068970;28;20037;-70
2022/02/17 06:32:56;;;;;;;50.78;12.68;;;;;;;9.22;66.25;98248.13;5070435;28;20032;-70
2022/02/17 06:35:24;;;;;;;30.23;10.20;;;;;;;9.20;65.66;98227.19;5074010;28;20027;-70
2022/02/17 06:37:51;;;;;;;48.00;12.50;;;;;;;9.21;65.37;98243.84;5083720;28;20048;-70
2022/02/17 06:40:17;;;;;;;49.97;15.75;;;;;;;9.21;65.37;98239.41;5081136;28;20513;-70
2022/02/17 06:42:43;;;;;;;39.58;11.75;;;;;;;9.21;65.34;98260.44;5083047;28;20032;-71
2022/02/17 06:45:09;;;;;;;39.70;11.20;;;;;;;9.22;65.33;98280.50;5071546;28;20036;-70
2022/02/17 06:47:34;;;;;;;51.47;13.55;;;;;;;9.22;65.60;98263.91;5089972;28;20028;-70
2022/02/17 06:50:00;;;;;;;42.63;12.00;;;;;;;9.22;64.96;98264.75;5089107;28;20131;-71
2022/02/17 06:52:25;;;;;;;47.30;12.43;;;;;;;9.21;65.14;98289.38;5090510;28;20043;-70
2022/02/17 06:54:51;;;;;;;47.95;11.48;;;;;;;9.19;64.98;98291.25;5089970;28;20036;-71
2022/02/17 06:57:21;;;;;;;54.33;13.88;;;;;;;9.19;64.37;98283.34;5089247;28;20031;-70
2022/02/17 06:59:47;;;;;;;39.75;12.55;;;;;;;9.18;64.69;98293.97;5087861;28;20038;-71
2022/02/17 07:02:13;;;;;;;39.83;10.43;;;;;;;9.21;64.75;98305.13;5089577;28;20044;-69
2022/02/17 07:04:39;;;;;;;38.28;11.52;;;;;;;9.21;66.28;98318.28;5090001;28;20146;-68
2022/02/17 07:07:05;;;;;;;44.17;11.07;;;;;;;9.13;67.82;98332.88;5089530;28;20035;-70
2022/02/17 07:09:30;;;;;;;41.08;12.02;;;;;;;9.02;67.66;98309.94;5089849;28;20089;-69
2022/02/17 07:11:56;;;;;;;41.72;10.82;;;;;;;8.98;66.75;98324.22;5090057;28;20055;-69
2022/02/17 07:14:23;;;;;;;39.38;12.88;;;;;;;8.99;66.17;98353.03;5088568;28;20114;-70
2022/02/17 07:16:53;;;;;;;49.42;10.43;;;;;;;9.02;66.62;98355.47;5088659;28;20096;-70
2022/02/17 07:19:19;;;;;;;43.03;11.60;;;;;;;9.02;64.41;98362.50;5088763;28;20489;-69
2022/02/17 07:21:46;;;;;;;40.70;11.23;;;;;;;9.06;64.65;98364.00;5070817;28;20036;-70
2022/02/17 07:24:11;;;;;;;31.58;8.55;;;;;;;9.07;65.66;98375.38;5088930;28;20057;-69
2022/02/17 07:26:37;;;;;;;26.15;8.70;;;;;;;9.11;64.51;98371.59;5088288;28;20036;-69
2022/02/17 07:29:02;;;;;;;39.85;11.63;;;;;;;9.11;64.97;98363.72;5088622;28;20032;-69
2022/02/17 07:31:27;;;;;;;33.88;11.20;;;;;;;9.15;63.52;98391.47;5089299;28;20493;-68
2022/02/17 07:33:55;;;;;;;39.08;10.00;;;;;;;9.16;64.73;98361.63;5088012;28;20039;-70
2022/02/17 07:36:20;;;;;;;35.78;12.20;;;;;;;9.14;63.49;98374.00;5088468;28;20390;-70
2022/02/17 07:38:46;;;;;;;39.40;10.60;;;;;;;9.14;63.12;98385.38;5088322;28;20040;-70
2022/02/17 07:41:12;;;;;;;47.20;12.02;;;;;;;9.11;66.00;98398.72;5088677;28;20488;-70
2022/02/17 07:43:38;;;;;;;42.30;10.07;;;;;;;9.01;64.98;98408.16;5088550;28;20113;-69
2022/02/17 07:46:04;;;;;;;40.47;11.85;;;;;;;8.95;64.97;98422.53;5088096;28;20653;-69
2022/02/17 07:48:29;;;;;;;35.95;11.60;;;;;;;8.93;64.97;98427.03;5089025;28;20048;-69
2022/02/17 07:50:56;;;;;;;37.60;10.75;;;;;;;8.89;65.52;98433.44;5087925;28;20105;-70
2022/02/17 07:53:23;;;;;;;36.90;11.32;;;;;;;8.92;65.41;98443.75;5088201;28;20035;-69
2022/02/17 07:55:48;;;;;;;42.47;11.73;;;;;;;8.98;66.00;98442.50;5087577;28;20043;-69
2022/02/17 07:58:17;;;;;;;50.35;9.25;;;;;;;9.05;65.04;98442.97;5070392;28;20036;-70
2022/02/17 08:00:43;;;;;;;45.22;11.75;;;;;;;9.08;64.66;98440.13;5088152;28;20562;-70
2022/02/17 08:03:10;;;;;;;41.55;10.65;;;;;;;9.07;64.64;98455.06;5087716;28;20036;-69
2022/02/17 08:05:38;;;;;;;38.97;13.68;;;;;;;9.10;65.01;98464.53;5088283;28;20036;-70
2022/02/17 08:08:07;;;;;;;51.55;11.35;;;;;;;9.09;65.46;98463.69;5088395;28;20028;-69
2022/02/17 08:10:35;;;;;;;36.92;11.23;;;;;;;9.05;65.29;98477.97;5084287;28;20442;-69
2022/02/17 08:13:01;;;;;;;35.05;11.43;;;;;;;9.03;65.43;98485.09;5087758;28;20429;-69
2022/02/17 08:15:27;;;;;;;48.33;14.63;;;;;;;9.03;65.07;98480.72;5088307;28;20081;-69
2022/02/17 08:17:52;;;;;;;40.67;11.85;;;;;;;9.03;65.48;98474.59;5086585;28;20032;-70
2022/02/17 08:20:17;;;;;;;50.60;11.90;;;;;;;9.04;66.59;98507.84;5087833;28;20031;-70
2022/02/17 08:22:56;;;;;;;58.80;13.70;;;;;;;9.04;66.82;98515.72;5070001;28;20047;-71
2022/02/17 08:25:22;;;;;;;47.58;13.82;;;;;;;9.06;65.92;98507.72;5087627;28;20032;-69
2022/02/17 08:27:49;;;;;;;38.67;11.00;;;;;;;9.11;65.94;98506.53;5087389;28;20047;-69
2022/02/17 08:30:14;;;;;;;43.45;10.73;;;;;;;9.22;65.44;98511.91;5087266;28;20055;-69
2022/02/17 08:32:40;;;;;;;54.53;11.77;;;;;;;9.30;64.36;98518.47;5087184;28;20454;-70
2022/02/17 08:35:10;;;;;;;44.58;11.60;;;;;;;9.26;64.52;98506.47;5087525;28;20032;-69
2022/02/17 08:37:37;;;;;;;43.78;12.32;;;;;;;9.31;63.57;98501.75;5087112;28;20447;-69
2022/02/17 08:40:04;;;;;;;46.83;12.98;;;;;;;9.31;63.75;98514.91;5079284;28;20037;-69
2022/02/17 08:42:29;;;;;;;41.22;12.60;;;;;;;9.39;63.73;98517.88;5050112;28;20040;-70
2022/02/17 08:44:55;;;;;;;42.28;11.65;;;;;;;9.36;64.70;98518.09;5069233;28;20047;-69
2022/02/17 08:47:21;;;;;;;62.30;16.05;;;;;;;9.40;64.61;98522.19;5067071;28;20120;-69
2022/02/17 08:49:48;;;;;;;52.63;14.52;;;;;;;9.52;63.30;98524.03;5066901;28;20041;-69
2022/02/17 08:52:13;;;;;;;46.70;14.93;;;;;;;9.59;63.57;98540.25;5067452;28;20581;-69
2022/02/17 08:54:38;;;;;;;51.60;12.77;;;;;;;9.40;65.40;98532.72;5066868;28;20155;-69
2022/02/17 08:57:04;;;;;;;37.03;13.18;;;;;;;9.09;67.92;98534.69;5067000;28;20048;-69
2022/02/17 08:59:30;;;;;;;52.78;14.30;;;;;;;9.02;69.13;98530.75;5066775;28;20075;-69
2022/02/17 09:01:56;;;;;;;61.33;13.68;;;;;;;9.15;68.73;98536.06;5066448;28;20559;-69
2022/02/17 09:04:21;;;;;;;44.83;12.57;;;;;;;9.34;67.61;98531.31;5066707;28;20071;-69
2022/02/17 09:06:48;;;;;;;42.83;11.48;;;;;;;9.46;65.50;98545.47;5066675;28;20086;-69
2022/02/17 09:09:15;;;;;;;46.25;11.38;;;;;;;9.54;65.97;98542.34;5064369;28;20706;-69
2022/02/17 09:11:41;;;;;;;61.05;13.68;;;;;;;9.49;65.23;98554.97;5066713;28;20071;-70
2022/02/17 09:14:07;;;;;;;48.42;12.23;;;;;;;9.66;64.67;98563.44;5066776;28;20056;-70
2022/02/17 09:16:34;;;;;;;48.53;11.98;;;;;;;9.92;64.04;98562.66;5066866;28;20036;-70
2022/02/17 09:18:59;;;;;;;40.20;10.80;;;;;;;10.49;61.98;98565.00;5067156;28;20036;-71
2022/02/17 09:21:25;;;;;;;39.83;11.68;;;;;;;10.17;62.00;98569.81;5065937;28;20062;-70
2022/02/17 09:23:50;;;;;;;38.08;11.43;;;;;;;10.22;62.47;98570.34;5066134;28;20033;-70
2022/02/17 09:26:16;;;;;;;58.63;11.27;;;;;;;10.64;60.86;98571.84;5066109;28;20449;-70
2022/02/17 09:28:43;;;;;;;46.40;9.98;;;;;;;11.30;58.03;98571.66;5067817;28;20066;-70
2022/02/17 09:31:12;;;;;;;45.47;11.27;;;;;;;11.12;58.36;98576.44;5070329;28;20055;-70
2022/02/17 09:33:38;;;;;;;31.65;10.65;;;;;;;11.36;57.35;98600.22;5088791;28;20056;-71
2022/02/17 09:36:04;;;;;;;32.33;10.25;;;;;;;11.30;56.86;98590.13;5090158;28;20438;-71
2022/02/17 09:38:29;;;;;;;41.95;11.32;;;;;;;11.16;58.59;98591.09;5090858;28;20397;-70
2022/02/17 09:40:55;;;;;;;40.58;10.13;;;;;;;11.71;56.49;98604.75;5090084;28;20085;-69
2022/02/17 09:43:24;;;;;;;41.03;11.77;;;;;;;11.60;56.13;98624.88;5090887;28;20032;-70
2022/02/17 09:45:50;;;;;;;37.95;12.30;;;;;;;11.34;56.97;98617.97;5068979;28;20028;-70
2022/02/17 09:48:18;;;;;;;39.63;12.07;;;;;;;11.80;55.38;98618.13;5089094;28;20512;-69
2022/02/17 09:50:44;;;;;;;35.75;10.85;;;;;;;11.39;55.66;98621.13;5090305;28;20052;-70
2022/02/17 09:53:10;;;;;;;44.65;11.07;;;;;;;11.88;55.24;98632.63;5090768;28;20032;-70
2022/02/17 09:55:35;;;;;;;46.47;11.20;;;;;;;12.23;53.46;98628.22;5090081;28;20443;-70
2022/02/17 09:58:01;;;;;;;39.97;10.45;;;;;;;12.61;54.05;98648.28;5090104;28;20111;-70
2022/02/17 10:00:27;;;;;;;34.70;9.90;;;;;;;12.57;53.24;98630.94;5089490;28;20029;-70
2022/02/17 10:02:52;;;;;;;41.08;11.05;;;;;;;12.25;54.46;98615.72;5090226;28;20040;-70
2022/02/17 10:05:17;;;;;;;35.58;8.57;;;;;;;12.70;52.94;98646.75;5090276;28;20039;-70
2022/02/17 10:07:44;;;;;;;31.55;10.65;;;;;;;12.94;52.15;98656.38;5090295;28;20405;-70
2022/02/17 10:10:15;;;;;;;29.10;9.15;;;;;;;13.92;49.11;98656.59;5089631;28;20522;-70
2022/02/17 10:12:57;;;;;;;42.67;11.73;;;;;;;13.67;48.46;98657.75;5090487;28;20150;-70
2022/02/17 10:15:31;;;;;;;32.08;10.70;;;;;;;13.32;49.58;98664.03;5089261;28;20057;-70
2022/02/17 10:18:04;;;;;;;31.08;9.02;;;;;;;13.93;48.76;98645.03;5090455;28;20032;-70
2022/02/17 10:21:08;;;;;;;29.63;9.20;;;;;;;13.72;47.50;98661.69;5089198;28;20029;-71
2022/02/17 10:23:43;;;;;;;38.15;9.13;;;;;;;13.87;49.05;98651.66;5070072;28;20055;-70
2022/02/17 10:26:15;;;;;;;33.28;8.73;;;;;;;13.68;49.03;98656.75;5049495;28;20398;-70
2022/02/17 10:28:57;;;;;;;32.15;10.15;;;;;;;13.20;49.72;98664.97;5069337;28;20544;-69
2022/02/17 10:31:28;;;;;;;32.08;8.48;;;;;;;12.43;51.92;98665.53;5069519;28;20093;-69
2022/02/17 10:33:56;;;;;;;35.40;9.10;;;;;;;12.41;51.74;98678.03;5089289;28;20038;-69
2022/02/17 10:36:38;;;;;;;31.83;9.05;;;;;;;12.08;53.32;98676.88;5086793;28;20396;-69
2022/02/17 10:39:19;;;;;;;36.85;9.05;;;;;;;11.73;53.58;98688.19;5068717;28;20040;-69
2022/02/17 10:41:54;;;;;;;30.15;8.75;;;;;;;11.52;54.21;98682.66;5068094;28;20032;-70
2022/02/17 10:44:23;;;;;;;27.08;9.95;;;;;;;11.48;54.06;98693.53;5069711;28;20131;-70
2022/02/17 10:46:48;;;;;;;40.00;10.68;;;;;;;11.27;54.36;98699.38;5067196;28;20034;-70
2022/02/17 10:49:19;;;;;;;31.10;9.10;;;;;;;11.35;54.79;98694.38;5052174;28;20036;-70
2022/02/17 10:51:46;;;;;;;26.75;8.30;;;;;;;11.00;54.71;98704.75;5068479;28;20025;-70
2022/02/17 10:54:12;;;;;;;30.38;10.40;;;;;;;10.82;55.74;98701.56;5069102;28;20033;-69
2022/02/17 10:56:40;;;;;;;30.08;9.15;;;;;;;10.68;56.48;98694.59;5069179;28;20119;-70
2022/02/17 11:01:54;;;;;;;;;;;;;;;10.96;56.81;98706.75;5069198;28;20066;-69
2022/02/17 11:04:19;;;;;;;31.15;8.70;;;;;;;11.08;57.53;98717.41;5067713;28;19920;-70
2022/02/17 11:06:45;;;;;;;32.92;9.77;;;;;;;11.44;56.77;98714.00;5069087;28;20043;-70
2022/02/17 11:09:12;;;;;;;28.58;8.18;;;;;;;11.78;56.22;98727.47;5051205;28;20085;-71
2022/02/17 11:11:38;;;;;;;25.58;7.65;;;;;;;12.18;55.39;98737.84;5069584;28;20047;-70
2022/02/17 11:14:03;;;;;;;23.38;7.28;;;;;;;12.28;55.60;98724.78;5068855;28;20040;-71
2022/02/17 11:16:29;;;;;;;32.75;10.18;;;;;;;12.29;54.08;98727.34;5069223;28;20040;-70
2022/02/17 11:18:57;;;;;;;26.35;7.72;;;;;;;12.25;53.68;98717.94;5068555;28;20889;-70
2022/02/17 11:21:23;;;;;;;28.13;7.72;;;;;;;12.38;52.78;98728.44;5050689;28;20036;-70
2022/02/17 11:23:48;;;;;;;24.15;8.55;;;;;;;12.29;52.86;98731.78;5068893;28;20041;-71
2022/02/17 11:26:31;;;;;;;20.80;7.70;;;;;;;12.22;53.25;98736.66;5050610;28;20054;-70
2022/02/17 11:29:27;;;;;;;23.77;7.95;;;;;;;12.14;53.31;98728.47;5068680;28;20062;-70